Market Rasen, United Kingdom
Current Conditions -  °F | °C
As of 8:50 PM on Tuesday 27 Jan 2015 (Local Time) from EGXP Reporting Station
Overcast Overcast  
Wind Chill: 35°   Ceiling: 2900
Heat Index: 43°   Visibility: 6mi
Dew Point: 37°   Wind: 16mph
Humidity: 81%   Direction: 230°SW
Pressure: 30.06"   Gusts: NA
Location:  53.39°N, 0.34°W
Report Text: EGXP 272050Z AUTO 23014KT 9999 // OVC029/// 06/03 Q1018
Loading
Personal Weather Stations






























Interactive Weather Map New forecast layout! Learn more

10-Day Weather Forecast

Advertisements
Track Severe Weather on mobile